Karluk, AK (99608)

9:03 PM AKDT on August 20, 2014 (GMT -0800)
Kodiak | Change Station
CLOSE
Current Station
Airport
Location: Kodiak,
Elevation: 112 ft
Nearby Weather Stations

Elev 112 ft 57.75 °N, 152.49 °W | Updated 10 minutes ago

Scattered Clouds
Scattered Clouds
57 °F
Feels Like 57 °F
N
0
Wind Variable Wind from North

Today
High -- | Low -- °F
--% Chance of Precip.
Yesterday
High -- | Low -- °F
Precip. -- in
6:53 AM 9:46 PM
Waning Crescent, 17% visible
Pressure 30.14 in
Visibility 10.0 miles
Clouds Few 3000 ft
Scattered Clouds 4500 ft
Scattered Clouds 25000 ft
Dew Point 52 °F
Humidity 83%
Rainfall 0.00 in
Snow Depth Not available.
UV 0 out of 12
Pollen Not available.
Air Quality Not available.
Flu Activity Not available.
METAR PADQ 210453Z 00000KT 10SM FEW030 SCT045 SCT250 14/11 A3014 RMK AO2 SLP206 T01390111

More Conditions Fewer Conditions

Pressure 30.14 in
Visibility 10.0 miles
Clouds Few 3000 ft
Scattered Clouds 4500 ft
Scattered Clouds 25000 ft
Dew Point 52 °F
Humidity 83%
Rainfall 0.00 in
Snow Depth Not available.
UV 0 out of 12
Pollen Not available.
Air Quality Not available.
Flu Activity Not available.
METAR PADQ 210453Z 00000KT 10SM FEW030 SCT045 SCT250 14/11 A3014 RMK AO2 SLP206 T01390111

More Conditions Fewer Conditions

10-Day Weather Forecast

Almanac

Astronomy

Aug. 20, 2014 Rise Set
Actual Time 6:53 AM AKDT 9:46 PM AKDT
Civil Twilight 6:09 AM AKDT 10:31 PM AKDT
Nautical Twilight 5:09 AM AKDT 11:29 PM AKDT
Astronomical Twilight 3:44 AM AKDT 12:52 AM AKDT
Moon 2:18 AM AKDT (8/20) 7:02 PM AKDT (8/20)
Length of Visible Light 16h 21m
Length of Day
14h 52m
Tomorrow will be 4m 43s shorter.
Waning Crescent, 17% of the Moon is Illuminated
Aug 21
Waning Crescent
Aug 25
New
Sep 2
First Quarter
Sep 8
Full
Sep 15
Last Quarter

Yesterday's Extremes

State Highs State Lows

Community

WunderPhotos

Upload Photos

1,745,857 photos uploaded!

Nearby

Snow Depth

Station Depth Elevation
Mcneil Canyon 1 in 1320 ft
MF Bradley River 4 in 2300 ft
Cooper Lake 34 in 1200 ft
Grouse Creek Divide 0 in 700 ft
Summit Creek 0 in 1400 ft

Earthquake Activity

City Distance Mag. Time & Date
No recent earthquake activity has been reported nearby.
Minimum magnitude displayed is 2.5.

Coastal Water Temperatures

Place Temperature
No Stations Reporting

Nearby Weather Stations